createdAt,value
2023-04-20T00:01:53.890Z,12.03
2023-04-20T00:03:56.158Z,13.10
2023-04-20T00:06:01.520Z,15.17
2023-04-20T00:08:03.709Z,14.67
2023-04-20T00:10:07.112Z,13.50
2023-04-20T00:12:09.139Z,15.30
2023-04-20T00:14:11.157Z,16.07
2023-04-20T00:16:13.271Z,15.57
2023-04-20T00:18:16.186Z,14.20
2023-04-20T00:20:18.500Z,13.13
2023-04-20T00:22:20.485Z,10.77
2023-04-20T00:24:23.118Z,14.10
2023-04-20T00:26:25.526Z,12.17
2023-04-20T00:28:29.924Z,12.63
2023-04-20T00:30:31.933Z,10.93
2023-04-20T00:32:34.025Z,11.20
2023-04-20T00:34:36.088Z,11.50
2023-04-20T00:36:38.198Z,14.77
2023-04-20T00:38:40.657Z,15.00
2023-04-20T00:40:49.012Z,15.43
2023-04-20T00:42:51.342Z,14.47
2023-04-20T00:44:53.395Z,11.17
2023-04-20T00:46:57.405Z,16.13
2023-04-20T00:49:01.071Z,11.70
2023-04-20T00:51:03.460Z,12.07
2023-04-20T00:53:06.558Z,13.63
2023-04-20T00:55:09.147Z,10.67
2023-04-20T00:57:19.240Z,19.37
2023-04-20T00:59:22.058Z,13.23
2023-04-20T01:01:24.590Z,15.97
2023-04-20T01:03:27.172Z,14.80
2023-04-20T01:05:29.501Z,13.90
2023-04-20T01:07:31.519Z,14.13
2023-04-20T01:09:33.556Z,13.00
2023-04-20T01:11:35.884Z,17.70
2023-04-20T01:13:38.577Z,18.47
2023-04-20T01:15:40.726Z,17.40
2023-04-20T01:17:43.949Z,14.83
2023-04-20T01:19:46.512Z,14.83
2023-04-20T01:21:48.792Z,13.80
2023-04-20T01:23:51.602Z,16.50
2023-04-20T01:25:53.660Z,14.17
2023-04-20T01:27:56.605Z,14.87
2023-04-20T01:29:58.597Z,15.47
2023-04-20T01:32:00.681Z,16.50
2023-04-20T01:34:02.723Z,16.90
2023-04-20T01:36:06.406Z,15.90
2023-04-20T01:38:08.406Z,17.07
2023-04-20T01:40:11.742Z,14.63
2023-04-20T01:42:13.810Z,19.10
2023-04-20T01:44:15.878Z,19.33
2023-04-20T01:46:18.044Z,15.60
2023-04-20T01:48:22.270Z,16.97
2023-04-20T01:50:24.315Z,20.00
2023-04-20T01:52:27.083Z,18.10
2023-04-20T01:54:29.439Z,16.10
2023-04-20T01:56:31.360Z,19.10
2023-04-20T01:58:33.994Z,17.93
2023-04-20T02:00:36.064Z,17.73
2023-04-20T02:02:38.167Z,17.10
2023-04-20T02:04:40.322Z,16.77
2023-04-20T02:06:42.356Z,21.33
2023-04-20T02:08:44.750Z,18.47
2023-04-20T02:10:46.834Z,18.70
2023-04-20T02:12:49.777Z,19.50
2023-04-20T02:14:52.079Z,19.30
2023-04-20T02:16:56.782Z,27.40
2023-04-20T02:18:58.883Z,23.53
2023-04-20T02:21:01.307Z,22.80
2023-04-20T02:23:03.589Z,22.13
2023-04-20T02:25:06.659Z,22.63
2023-04-20T02:27:08.671Z,26.20
2023-04-20T02:29:10.846Z,17.57
2023-04-20T02:31:12.981Z,20.87
2023-04-20T02:33:15.223Z,25.50
2023-04-20T02:35:17.216Z,19.90
2023-04-20T02:37:19.231Z,24.30
2023-04-20T02:39:21.373Z,19.13
2023-04-20T02:41:23.507Z,19.87
2023-04-20T02:43:25.692Z,18.90
2023-04-20T02:45:28.045Z,16.83
2023-04-20T02:47:30.380Z,20.57
2023-04-20T02:49:32.450Z,23.43
2023-04-20T02:51:34.944Z,22.13
2023-04-20T02:53:37.125Z,19.80
2023-04-20T02:55:54.773Z,19.73
2023-04-20T02:58:14.104Z,21.53
2023-04-20T03:00:34.792Z,24.13
2023-04-20T03:02:41.737Z,22.70
2023-04-20T03:04:44.196Z,24.30
2023-04-20T03:06:53.843Z,29.33
2023-04-20T03:09:01.605Z,19.10
2023-04-20T03:11:21.448Z,19.97
2023-04-20T03:13:23.503Z,22.23
2023-04-20T03:15:29.511Z,19.83
2023-04-20T03:17:45.345Z,23.43
2023-04-20T03:19:47.464Z,28.13
2023-04-20T03:21:49.510Z,22.20
2023-04-20T03:23:51.794Z,23.00
2023-04-20T03:25:54.292Z,25.40
2023-04-20T03:28:14.909Z,21.70
2023-04-20T03:30:16.999Z,21.20
2023-04-20T03:32:22.418Z,20.40
2023-04-20T03:34:24.854Z,17.73
2023-04-20T03:36:28.488Z,17.07
2023-04-20T03:38:31.909Z,18.73
2023-04-20T03:40:34.063Z,19.00
2023-04-20T03:42:37.313Z,16.83
2023-04-20T03:44:40.227Z,17.40
2023-04-20T03:46:43.844Z,16.23
2023-04-20T03:48:45.894Z,15.77
2023-04-20T03:50:48.268Z,17.87
2023-04-20T03:52:50.385Z,16.20
2023-04-20T03:54:52.321Z,17.70
2023-04-20T03:56:55.155Z,14.10
2023-04-20T03:58:57.372Z,17.43
2023-04-20T04:01:03.197Z,13.63
2023-04-20T04:03:06.407Z,18.60
2023-04-20T04:05:08.923Z,13.83
2023-04-20T04:07:11.275Z,13.50
2023-04-20T04:09:15.789Z,15.87
2023-04-20T04:11:17.969Z,14.63
2023-04-20T04:13:20.972Z,18.10
2023-04-20T04:15:23.038Z,13.13
2023-04-20T04:17:34.404Z,13.03
2023-04-20T04:19:36.466Z,10.33
2023-04-20T04:21:39.296Z,9.33
2023-04-20T04:23:42.559Z,11.57
2023-04-20T04:26:07.394Z,12.47
2023-04-20T04:28:12.005Z,9.80
2023-04-20T04:30:21.441Z,10.57
2023-04-20T04:32:24.583Z,10.80
2023-04-20T04:34:29.952Z,10.20
2023-04-20T04:36:32.267Z,9.73
2023-04-20T04:38:34.658Z,11.47
2023-04-20T04:40:38.120Z,12.53
2023-04-20T04:42:41.806Z,10.63
2023-04-20T04:44:45.005Z,11.30
2023-04-20T04:46:51.653Z,10.13
2023-04-20T04:48:53.642Z,9.50
2023-04-20T04:50:55.685Z,10.93
2023-04-20T04:52:57.733Z,11.80
2023-04-20T04:54:59.824Z,11.53
2023-04-20T04:57:02.201Z,11.67
2023-04-20T04:59:04.195Z,13.03
2023-04-20T05:01:06.437Z,10.97
2023-04-20T05:03:08.647Z,10.60
2023-04-20T05:05:10.982Z,9.97
2023-04-20T05:07:14.185Z,10.73
2023-04-20T05:09:16.561Z,12.63
2023-04-20T05:11:18.755Z,12.90
2023-04-20T05:13:20.764Z,11.13
2023-04-20T05:15:22.890Z,14.73
2023-04-20T05:17:25.029Z,10.50
2023-04-20T05:19:27.060Z,14.70
2023-04-20T05:21:29.100Z,11.53
2023-04-20T05:23:31.112Z,13.40
2023-04-20T05:25:33.151Z,11.17
2023-04-20T05:27:35.174Z,10.63
2023-04-20T05:29:38.310Z,13.63
2023-04-20T05:31:40.495Z,10.80
2023-04-20T05:33:43.338Z,10.33
2023-04-20T05:35:45.533Z,10.83
2023-04-20T05:37:47.886Z,10.27
2023-04-20T05:39:49.986Z,9.03
2023-04-20T05:41:52.213Z,10.33
2023-04-20T05:43:54.808Z,9.47
2023-04-20T05:45:56.853Z,11.80
2023-04-20T05:47:59.126Z,10.43
2023-04-20T05:50:01.127Z,9.87
2023-04-20T05:52:03.416Z,8.23
2023-04-20T05:54:05.614Z,10.00
2023-04-20T05:56:08.097Z,10.23
2023-04-20T05:58:10.296Z,8.57
2023-04-20T06:00:14.205Z,12.10
2023-04-20T06:02:16.309Z,10.20
2023-04-20T06:04:18.866Z,9.33
2023-04-20T06:06:20.985Z,12.20
2023-04-20T06:08:23.014Z,10.63
2023-04-20T06:10:25.055Z,11.80
2023-04-20T06:12:27.014Z,9.00
2023-04-20T06:14:29.000Z,13.80
2023-04-20T06:16:31.194Z,11.37
2023-04-20T06:18:33.249Z,13.90
2023-04-20T06:20:35.312Z,12.93
2023-04-20T06:22:42.832Z,12.67
2023-04-20T06:24:44.957Z,12.23
2023-04-20T06:26:47.020Z,11.73
2023-04-20T06:28:49.103Z,11.43
2023-04-20T06:30:51.276Z,12.40
2023-04-20T06:32:53.326Z,13.87
2023-04-20T06:34:55.526Z,12.77
2023-04-20T06:36:57.532Z,13.40
2023-04-20T06:38:59.733Z,10.40
2023-04-20T06:41:04.656Z,11.87
2023-04-20T06:43:06.637Z,13.57
2023-04-20T06:45:09.060Z,9.40
2023-04-20T06:47:11.091Z,9.40
2023-04-20T06:49:13.120Z,9.40
2023-04-20T06:51:15.086Z,10.47
2023-04-20T06:53:17.423Z,10.80
2023-04-20T06:55:19.534Z,9.10
2023-04-20T06:57:21.909Z,8.77
2023-04-20T06:59:24.006Z,7.77
2023-04-20T07:01:26.058Z,8.60
2023-04-20T07:03:28.131Z,8.63
2023-04-20T07:05:30.286Z,9.53
2023-04-20T07:07:32.267Z,8.47
2023-04-20T07:09:34.296Z,8.17
2023-04-20T07:11:36.392Z,7.40
2023-04-20T07:13:38.537Z,8.37
2023-04-20T07:15:40.729Z,9.63
2023-04-20T07:17:42.747Z,7.73
2023-04-20T07:19:44.779Z,10.33
2023-04-20T07:21:46.783Z,10.57
2023-04-20T07:23:49.053Z,8.90
2023-04-20T07:25:50.995Z,8.23
2023-04-20T07:27:52.989Z,9.77
2023-04-20T07:29:54.946Z,10.57
2023-04-20T07:31:57.079Z,9.50
2023-04-20T07:33:59.219Z,8.73
2023-04-20T07:36:01.777Z,10.10
2023-04-20T07:38:03.741Z,11.03
2023-04-20T07:40:07.055Z,12.80
2023-04-20T07:42:09.535Z,14.07
2023-04-20T07:44:13.715Z,9.83
2023-04-20T07:46:22.957Z,10.90
2023-04-20T07:48:25.077Z,13.37
2023-04-20T07:50:27.166Z,11.53
2023-04-20T07:52:29.185Z,10.60
2023-04-20T07:54:32.320Z,11.27
2023-04-20T07:56:34.358Z,12.57
2023-04-20T07:58:38.592Z,13.40
2023-04-20T08:00:40.649Z,12.53
2023-04-20T08:02:42.898Z,11.23
2023-04-20T08:04:46.602Z,11.40
2023-04-20T08:07:04.099Z,13.00
2023-04-20T08:09:06.119Z,13.43
2023-04-20T08:11:08.235Z,15.30
2023-04-20T08:13:10.480Z,13.43
2023-04-20T08:15:12.561Z,23.83
2023-04-20T08:17:14.618Z,22.17
2023-04-20T08:19:16.724Z,19.57
2023-04-20T08:21:18.883Z,15.77
2023-04-20T08:23:21.012Z,14.07
2023-04-20T08:25:24.283Z,13.10
2023-04-20T08:27:29.860Z,13.43
2023-04-20T08:29:31.982Z,15.00
2023-04-20T08:31:34.210Z,13.50
2023-04-20T08:33:36.436Z,12.50
2023-04-20T08:35:38.517Z,10.43
2023-04-20T08:37:41.948Z,12.80
2023-04-20T08:39:44.057Z,13.73
2023-04-20T08:41:46.871Z,11.80
2023-04-20T08:43:50.178Z,10.73
2023-04-20T08:45:52.991Z,11.10
2023-04-20T08:47:56.658Z,11.60
2023-04-20T08:49:59.792Z,11.67
2023-04-20T08:52:01.819Z,11.50
2023-04-20T08:54:07.069Z,12.97
2023-04-20T08:56:09.147Z,12.33
2023-04-20T08:58:11.169Z,12.60
2023-04-20T09:00:14.574Z,15.40
2023-04-20T09:02:16.842Z,13.80
2023-04-20T09:04:21.563Z,15.53
2023-04-20T09:06:24.034Z,14.40
2023-04-20T09:08:36.707Z,14.43
2023-04-20T09:10:42.767Z,13.10
2023-04-20T09:12:45.172Z,11.67
2023-04-20T09:14:48.255Z,12.80
2023-04-20T09:16:52.042Z,14.63
2023-04-20T09:18:56.178Z,11.33
2023-04-20T09:21:07.830Z,10.10
2023-04-20T09:23:21.487Z,12.30
2023-04-20T09:25:28.830Z,12.10
2023-04-20T09:27:31.232Z,15.27
2023-04-20T09:29:38.361Z,14.53
2023-04-20T09:31:40.777Z,13.63
2023-04-20T09:33:42.810Z,11.60
2023-04-20T09:35:45.734Z,15.13
2023-04-20T09:37:48.467Z,11.80
2023-04-20T09:39:50.711Z,11.60
2023-04-20T09:41:52.834Z,15.17
2023-04-20T09:43:55.035Z,11.33
2023-04-20T09:45:57.700Z,11.83
2023-04-20T09:48:00.200Z,13.33
2023-04-20T09:50:19.523Z,12.60
2023-04-20T09:52:26.817Z,13.20
2023-04-20T09:54:29.088Z,11.73
2023-04-20T09:56:31.697Z,13.80
2023-04-20T09:58:35.065Z,11.77
2023-04-20T10:00:37.222Z,11.80
2023-04-20T10:02:40.346Z,14.27
2023-04-20T10:04:59.417Z,12.83
2023-04-20T10:07:06.146Z,11.30
2023-04-20T10:09:08.894Z,11.73
2023-04-20T10:11:11.265Z,12.40
2023-04-20T10:13:15.823Z,11.77
2023-04-20T10:15:18.716Z,9.93
2023-04-20T10:17:30.737Z,12.13
2023-04-20T10:19:40.920Z,12.43
2023-04-20T10:21:47.685Z,10.80
2023-04-20T10:23:50.848Z,12.10
2023-04-20T10:26:01.177Z,12.87
2023-04-20T10:28:08.380Z,12.63
2023-04-20T10:30:11.201Z,11.90
2023-04-20T10:32:27.482Z,11.70
2023-04-20T10:34:31.279Z,10.40
2023-04-20T10:36:37.010Z,10.03
2023-04-20T10:38:39.267Z,12.70
2023-04-20T10:40:41.544Z,10.63
2023-04-20T10:42:44.811Z,10.80
2023-04-20T10:44:50.865Z,12.87
2023-04-20T10:46:53.720Z,10.23
2023-04-20T10:49:03.878Z,9.60
2023-04-20T10:51:10.486Z,10.30
2023-04-20T10:53:23.027Z,16.90
2023-04-20T10:55:26.445Z,10.70
2023-04-20T10:57:28.672Z,11.80
2023-04-20T10:59:30.808Z,9.03
2023-04-20T11:01:33.308Z,11.03
2023-04-20T11:03:35.762Z,10.77
2023-04-20T11:05:38.122Z,12.70
2023-04-20T11:07:56.128Z,11.70
2023-04-20T11:09:58.395Z,10.87
2023-04-20T11:12:12.713Z,13.23
2023-04-20T11:14:14.904Z,13.90
2023-04-20T11:16:18.600Z,13.13
2023-04-20T11:18:21.742Z,14.63
2023-04-20T11:20:23.933Z,13.67
2023-04-20T11:22:26.103Z,14.63
2023-04-20T11:24:30.726Z,15.10
2023-04-20T11:26:40.747Z,15.43
2023-04-20T11:28:56.218Z,15.80
2023-04-20T11:30:59.587Z,19.63
2023-04-20T11:33:01.843Z,15.77
2023-04-20T11:35:11.124Z,20.27
2023-04-20T11:37:13.869Z,18.57
2023-04-20T11:39:29.744Z,19.23
2023-04-20T11:41:32.097Z,19.17
2023-04-20T11:43:35.849Z,17.90
2023-04-20T11:45:39.175Z,18.17
2023-04-20T11:47:41.509Z,20.40
2023-04-20T11:49:43.769Z,18.37
2023-04-20T11:51:48.991Z,15.43
2023-04-20T11:53:51.232Z,17.47
2023-04-20T11:55:53.419Z,14.70
2023-04-20T11:57:55.683Z,12.70
2023-04-20T11:59:57.869Z,12.17
2023-04-20T12:02:04.302Z,13.97
2023-04-20T12:04:07.191Z,14.47
2023-04-20T12:06:09.623Z,14.90
2023-04-20T12:08:11.837Z,16.60
2023-04-20T12:10:14.000Z,13.50
2023-04-20T12:12:16.197Z,16.33
2023-04-20T12:14:18.633Z,15.63
2023-04-20T12:16:21.377Z,14.83
2023-04-20T12:18:23.669Z,14.90
2023-04-20T12:20:26.028Z,14.80
2023-04-20T12:22:28.229Z,14.83
2023-04-20T12:24:30.414Z,17.37
2023-04-20T12:26:38.434Z,17.23
2023-04-20T12:28:45.166Z,17.10
2023-04-20T12:30:47.566Z,18.57
2023-04-20T12:32:49.723Z,19.97
2023-04-20T12:34:51.901Z,16.80
2023-04-20T12:36:54.117Z,21.07
2023-04-20T12:38:56.658Z,17.50
2023-04-20T12:40:58.928Z,18.00
2023-04-20T12:43:01.074Z,17.30
2023-04-20T12:45:03.651Z,17.53
2023-04-20T12:47:06.470Z,17.20
2023-04-20T12:49:08.773Z,19.40
2023-04-20T12:51:11.054Z,15.23
2023-04-20T12:53:13.231Z,19.80
2023-04-20T12:55:15.409Z,18.00
2023-04-20T12:57:17.648Z,14.07
2023-04-20T12:59:19.755Z,15.23
2023-04-20T13:01:22.060Z,16.97
2023-04-20T13:03:25.069Z,15.60
2023-04-20T13:05:27.685Z,13.13
2023-04-20T13:07:30.708Z,12.83
2023-04-20T13:09:33.995Z,13.70
2023-04-20T13:11:36.242Z,14.13
2023-04-20T13:13:38.460Z,14.03
2023-04-20T13:15:40.926Z,14.37
2023-04-20T13:17:43.177Z,11.63
2023-04-20T13:19:49.098Z,11.27
2023-04-20T13:21:51.692Z,12.37
2023-04-20T13:23:54.884Z,11.27
2023-04-20T13:26:01.465Z,11.40
2023-04-20T13:28:03.830Z,13.03
2023-04-20T13:30:07.821Z,11.90
2023-04-20T13:32:10.690Z,12.80
2023-04-20T13:34:12.891Z,14.03
2023-04-20T13:36:15.078Z,16.27
2023-04-20T13:38:17.676Z,13.77
2023-04-20T13:40:19.991Z,16.33
2023-04-20T13:42:22.197Z,18.03
2023-04-20T13:44:24.332Z,16.73
2023-04-20T13:46:26.623Z,17.73
2023-04-20T13:48:28.836Z,15.37
2023-04-20T13:50:31.126Z,23.97
2023-04-20T13:52:33.526Z,18.90
2023-04-20T13:54:35.729Z,18.07
2023-04-20T13:56:39.542Z,21.87
2023-04-20T13:58:41.650Z,21.00
2023-04-20T14:00:43.823Z,17.87
2023-04-20T14:02:46.824Z,19.10
2023-04-20T14:04:49.057Z,21.33
2023-04-20T14:06:52.251Z,20.00
2023-04-20T14:08:54.673Z,21.07
2023-04-20T14:10:57.048Z,18.07
2023-04-20T14:13:00.728Z,20.23
2023-04-20T14:15:03.025Z,20.53
2023-04-20T14:17:05.261Z,17.83
2023-04-20T14:19:07.390Z,18.03
2023-04-20T14:21:09.563Z,17.57
2023-04-20T14:23:11.943Z,17.43
2023-04-20T14:25:14.243Z,17.10
2023-04-20T14:27:16.484Z,20.87
2023-04-20T14:29:18.682Z,20.13
2023-04-20T14:31:20.889Z,19.17
2023-04-20T14:33:23.146Z,19.07
2023-04-20T14:35:26.910Z,19.57
2023-04-20T14:37:29.156Z,21.17
2023-04-20T14:39:31.386Z,21.50
2023-04-20T14:41:34.130Z,22.13
2023-04-20T14:43:36.662Z,22.13
2023-04-20T14:45:41.558Z,21.03
2023-04-20T14:47:44.146Z,22.53
2023-04-20T14:49:46.380Z,23.80
2023-04-20T14:51:50.370Z,25.37
2023-04-20T14:53:52.544Z,22.27
2023-04-20T14:55:55.147Z,22.20
2023-04-20T14:57:57.781Z,25.20
2023-04-20T14:59:59.934Z,26.70
2023-04-20T15:02:03.510Z,22.77
2023-04-20T15:04:06.215Z,27.20
2023-04-20T15:06:08.692Z,22.77
2023-04-20T15:08:11.004Z,24.60
2023-04-20T15:10:13.221Z,27.13
2023-04-20T15:12:15.838Z,23.80
2023-04-20T15:14:18.337Z,24.97
2023-04-20T15:16:20.874Z,25.03
2023-04-20T15:18:23.076Z,24.90
2023-04-20T15:20:25.388Z,23.93
2023-04-20T15:22:27.610Z,24.67
2023-04-20T15:24:29.841Z,30.90
2023-04-20T15:26:32.091Z,28.97
2023-04-20T15:28:34.237Z,29.37
2023-04-20T15:30:36.474Z,29.67
2023-04-20T15:32:38.718Z,26.33
2023-04-20T15:34:40.991Z,28.60
2023-04-20T15:36:43.666Z,29.40
2023-04-20T15:38:46.130Z,29.50
2023-04-20T15:40:48.493Z,28.10
2023-04-20T15:42:51.589Z,28.33
2023-04-20T15:44:53.692Z,29.07
2023-04-20T15:46:57.775Z,27.80
2023-04-20T15:48:59.991Z,31.67
2023-04-20T15:51:03.183Z,34.50
2023-04-20T15:53:05.416Z,30.77
2023-04-20T15:55:10.271Z,30.17
2023-04-20T15:57:12.434Z,31.57
2023-04-20T15:59:14.574Z,34.00
2023-04-20T16:01:20.618Z,33.87
2023-04-20T16:03:23.029Z,30.70
2023-04-20T16:05:26.860Z,27.77
2023-04-20T16:07:29.030Z,25.07
2023-04-20T16:09:31.190Z,29.97
2023-04-20T16:11:34.999Z,25.00
2023-04-20T16:13:37.256Z,23.83
2023-04-20T16:15:39.709Z,36.40
2023-04-20T16:17:42.000Z,25.83
2023-04-20T16:19:44.265Z,26.27
2023-04-20T16:21:46.519Z,24.53
2023-04-20T16:23:53.465Z,23.00
2023-04-20T16:25:55.955Z,23.87
2023-04-20T16:27:58.109Z,22.30
2023-04-20T16:30:00.409Z,26.70
2023-04-20T16:32:02.590Z,29.30
2023-04-20T16:34:04.815Z,23.93
2023-04-20T16:36:07.202Z,27.60
2023-04-20T16:38:10.759Z,27.13
2023-04-20T16:40:13.082Z,24.40
2023-04-20T16:42:15.331Z,27.03
2023-04-20T16:44:17.767Z,29.20
2023-04-20T16:46:22.359Z,29.40
2023-04-20T16:48:24.640Z,24.77
2023-04-20T16:50:26.863Z,28.47
2023-04-20T16:52:29.306Z,25.57
2023-04-20T16:54:31.501Z,26.10
2023-04-20T16:56:33.667Z,26.87
2023-04-20T16:58:35.806Z,29.47
2023-04-20T17:00:38.042Z,29.93
2023-04-20T17:02:40.536Z,27.07
2023-04-20T17:04:42.756Z,27.67
2023-04-20T17:06:46.640Z,25.00
2023-04-20T17:08:50.290Z,28.80
2023-04-20T17:10:52.481Z,27.90
2023-04-20T17:12:57.059Z,25.93
2023-04-20T17:14:59.337Z,24.50
2023-04-20T17:17:01.570Z,26.33
2023-04-20T17:19:03.874Z,24.00
2023-04-20T17:21:06.104Z,28.87
2023-04-20T17:23:08.337Z,23.90
2023-04-20T17:25:10.561Z,26.70
2023-04-20T17:27:12.826Z,30.27
2023-04-20T17:29:15.925Z,23.10
2023-04-20T17:31:18.151Z,25.80
2023-04-20T17:33:20.685Z,24.13
2023-04-20T17:35:23.339Z,24.87
2023-04-20T17:37:25.932Z,24.67
2023-04-20T17:39:28.205Z,27.17
2023-04-20T17:41:30.481Z,25.87
2023-04-20T17:43:32.782Z,26.07
2023-04-20T17:45:36.973Z,21.40
2023-04-20T17:47:39.250Z,24.10
2023-04-20T17:49:41.520Z,24.73
2023-04-20T17:51:43.642Z,21.90
2023-04-20T17:53:45.848Z,23.93
2023-04-20T17:55:48.049Z,25.57
2023-04-20T17:57:50.276Z,26.73
2023-04-20T17:59:52.461Z,25.30
2023-04-20T18:01:54.870Z,23.47
2023-04-20T18:03:57.437Z,28.40
2023-04-20T18:05:59.795Z,26.90
2023-04-20T18:08:02.006Z,27.63
2023-04-20T18:10:05.113Z,35.30
2023-04-20T18:12:08.682Z,36.03
2023-04-20T18:14:10.811Z,34.50
2023-04-20T18:16:13.127Z,33.87
2023-04-20T18:18:16.980Z,38.10
2023-04-20T18:20:19.278Z,37.87
2023-04-20T18:22:21.617Z,39.50
2023-04-20T18:24:23.862Z,37.07
2023-04-20T18:26:26.190Z,42.30
2023-04-20T18:28:28.410Z,37.53
2023-04-20T18:30:30.623Z,38.40
2023-04-20T18:32:33.112Z,35.13
2023-04-20T18:34:35.453Z,31.30
2023-04-20T18:36:37.656Z,33.93
2023-04-20T18:38:39.910Z,34.83
2023-04-20T18:40:42.089Z,39.17
2023-04-20T18:42:44.278Z,30.27
2023-04-20T18:44:46.481Z,35.10
2023-04-20T18:46:48.755Z,37.17
2023-04-20T18:48:51.165Z,35.20
2023-04-20T18:50:53.425Z,33.37
2023-04-20T18:52:55.563Z,35.53
2023-04-20T18:54:57.720Z,30.63
2023-04-20T18:56:59.913Z,34.33
2023-04-20T18:59:03.290Z,35.30
2023-04-20T19:01:05.538Z,30.57
2023-04-20T19:03:08.015Z,37.97
2023-04-20T19:05:10.473Z,33.10
2023-04-20T19:07:12.769Z,31.37
2023-04-20T19:09:15.050Z,32.93
2023-04-20T19:11:17.337Z,32.13
2023-04-20T19:13:19.538Z,33.50
2023-04-20T19:15:27.678Z,30.83
2023-04-20T19:17:30.056Z,32.70
2023-04-20T19:19:32.287Z,31.43
2023-04-20T19:21:34.521Z,29.90
2023-04-20T19:23:36.707Z,31.87
2023-04-20T19:25:38.939Z,31.70
2023-04-20T19:27:41.209Z,25.53
2023-04-20T19:29:44.606Z,30.27
2023-04-20T19:31:46.878Z,27.17
2023-04-20T19:33:49.110Z,29.17
2023-04-20T19:35:51.291Z,31.87
2023-04-20T19:37:53.419Z,28.13
2023-04-20T19:39:55.725Z,29.03
2023-04-20T19:41:58.462Z,32.20
2023-04-20T19:44:00.970Z,32.67
2023-04-20T19:46:03.956Z,34.47
2023-04-20T19:48:06.456Z,31.80
2023-04-20T19:50:09.205Z,36.03
2023-04-20T19:52:11.414Z,34.97
2023-04-20T19:54:16.616Z,31.90
2023-04-20T19:56:19.285Z,36.30
2023-04-20T19:58:21.704Z,29.13
2023-04-20T20:00:23.870Z,28.07
2023-04-20T20:02:26.289Z,29.80
2023-04-20T20:04:28.793Z,31.90
2023-04-20T20:06:32.517Z,37.10
2023-04-20T20:08:34.944Z,33.07
2023-04-20T20:10:37.218Z,33.53
2023-04-20T20:12:39.611Z,28.23
2023-04-20T20:14:41.793Z,29.23
2023-04-20T20:16:44.309Z,30.53
2023-04-20T20:18:48.314Z,29.70
2023-04-20T20:20:51.339Z,27.00
2023-04-20T20:22:53.524Z,27.67
2023-04-20T20:24:57.249Z,26.97
2023-04-20T20:26:59.435Z,28.30
2023-04-20T20:29:01.602Z,36.53
2023-04-20T20:31:03.862Z,28.93
2023-04-20T20:33:06.181Z,28.90
2023-04-20T20:35:13.032Z,26.30
2023-04-20T20:37:16.501Z,33.70
2023-04-20T20:39:18.938Z,27.37
2023-04-20T20:41:21.704Z,28.07
2023-04-20T20:43:25.300Z,28.70
2023-04-20T20:45:27.847Z,28.17
2023-04-20T20:47:31.170Z,30.83
2023-04-20T20:49:33.810Z,29.23
2023-04-20T20:51:36.139Z,31.03
2023-04-20T20:53:38.250Z,28.17
2023-04-20T20:55:43.527Z,36.27
2023-04-20T20:57:52.855Z,30.20
2023-04-20T20:59:55.613Z,28.50
2023-04-20T21:01:57.933Z,30.93
2023-04-20T21:04:00.439Z,28.93
2023-04-20T21:06:02.812Z,36.90
2023-04-20T21:08:05.086Z,32.93
2023-04-20T21:10:07.716Z,26.53
2023-04-20T21:12:09.966Z,29.17
2023-04-20T21:14:12.121Z,32.43
2023-04-20T21:16:14.426Z,30.90
2023-04-20T21:18:16.613Z,28.80
2023-04-20T21:20:18.884Z,26.83
2023-04-20T21:22:22.582Z,31.47
2023-04-20T21:24:25.067Z,28.80
2023-04-20T21:26:28.439Z,25.93
2023-04-20T21:28:30.605Z,26.60
2023-04-20T21:30:33.026Z,29.10
2023-04-20T21:32:35.268Z,28.80
2023-04-20T21:34:37.423Z,28.67
2023-04-20T21:36:48.989Z,29.90
2023-04-20T21:38:51.188Z,29.77
2023-04-20T21:40:53.398Z,26.07
2023-04-20T21:42:55.581Z,24.27
2023-04-20T21:44:57.723Z,30.03
2023-04-20T21:47:02.504Z,31.37
2023-04-20T21:49:05.005Z,34.23
2023-04-20T21:51:07.196Z,27.27
2023-04-20T21:53:09.336Z,31.27
2023-04-20T21:55:11.603Z,36.77
2023-04-20T21:57:13.928Z,38.40
2023-04-20T21:59:16.148Z,36.90
2023-04-20T22:01:18.416Z,41.87
2023-04-20T22:03:20.891Z,38.17
2023-04-20T22:05:23.426Z,39.90
2023-04-20T22:07:27.593Z,36.27
2023-04-20T22:09:30.217Z,42.30
2023-04-20T22:11:36.439Z,36.23
2023-04-20T22:13:38.868Z,36.73
2023-04-20T22:15:41.062Z,39.77
2023-04-20T22:17:46.634Z,31.70
2023-04-20T22:19:49.402Z,32.83
2023-04-20T22:21:51.594Z,36.00
2023-04-20T22:23:54.003Z,26.57
2023-04-20T22:25:56.253Z,30.20
2023-04-20T22:27:58.411Z,30.00
2023-04-20T22:30:00.910Z,33.53
2023-04-20T22:32:03.064Z,29.90
2023-04-20T22:34:05.055Z,30.67
2023-04-20T22:36:07.761Z,32.57
2023-04-20T22:38:09.747Z,31.67
2023-04-20T22:40:13.015Z,33.90
2023-04-20T22:42:15.229Z,29.03
2023-04-20T22:44:17.362Z,26.60
2023-04-20T22:46:19.387Z,31.97
2023-04-20T22:48:21.649Z,27.70
2023-04-20T22:50:23.703Z,36.80
2023-04-20T22:52:25.830Z,29.80
2023-04-20T22:54:27.902Z,29.50
2023-04-20T22:56:29.943Z,31.93
2023-04-20T22:58:32.063Z,26.77
2023-04-20T23:00:34.213Z,27.00
2023-04-20T23:02:37.594Z,22.90
2023-04-20T23:04:40.188Z,26.07
2023-04-20T23:06:45.403Z,24.60
2023-04-20T23:08:47.912Z,19.30
2023-04-20T23:10:50.844Z,27.40
2023-04-20T23:12:55.002Z,23.13
2023-04-20T23:15:00.524Z,21.17
2023-04-20T23:17:04.018Z,17.80
2023-04-20T23:19:06.020Z,23.80
2023-04-20T23:21:08.006Z,19.40
2023-04-20T23:23:10.825Z,18.87
2023-04-20T23:25:12.874Z,23.07
2023-04-20T23:27:15.123Z,15.23
2023-04-20T23:29:17.403Z,19.30
2023-04-20T23:31:20.537Z,15.20
2023-04-20T23:33:22.767Z,18.13
2023-04-20T23:35:24.879Z,21.70
2023-04-20T23:37:26.850Z,19.10
2023-04-20T23:39:28.913Z,23.30
2023-04-20T23:41:30.891Z,17.93
2023-04-20T23:43:33.931Z,12.53
2023-04-20T23:45:35.949Z,20.00
2023-04-20T23:47:38.129Z,15.57
2023-04-20T23:49:40.189Z,20.00
2023-04-20T23:51:42.349Z,15.33
2023-04-20T23:53:44.531Z,16.93
2023-04-20T23:55:51.745Z,14.33
2023-04-20T23:57:53.763Z,23.53
2023-04-20T23:59:55.754Z,13.53
